sensor_id;sensor_type;location;lat;lon;timestamp;P1;durP1;ratioP1;P2;durP2;ratioP2
10309;SDS011;5200;43.236;27.986;2024-01-25T00:01:14;13.93;;;10.13;;
10309;SDS011;5200;43.236;27.986;2024-01-25T00:03:41;13.47;;;10.13;;
10309;SDS011;5200;43.236;27.986;2024-01-25T00:06:08;15.20;;;10.03;;
10309;SDS011;5200;43.236;27.986;2024-01-25T00:08:35;12.27;;;9.47;;
10309;SDS011;5200;43.236;27.986;2024-01-25T00:11:02;15.07;;;10.23;;
10309;SDS011;5200;43.236;27.986;2024-01-25T00:13:29;15.03;;;10.10;;
10309;SDS011;5200;43.236;27.986;2024-01-25T00:15:56;12.07;;;10.00;;
10309;SDS011;5200;43.236;27.986;2024-01-25T00:18:24;15.87;;;10.60;;
10309;SDS011;5200;43.236;27.986;2024-01-25T00:20:51;15.90;;;10.70;;
10309;SDS011;5200;43.236;27.986;2024-01-25T00:23:18;12.57;;;9.17;;
10309;SDS011;5200;43.236;27.986;2024-01-25T00:25:44;15.07;;;10.20;;
10309;SDS011;5200;43.236;27.986;2024-01-25T00:28:11;20.37;;;14.13;;
10309;SDS011;5200;43.236;27.986;2024-01-25T00:30:38;13.17;;;9.07;;
10309;SDS011;5200;43.236;27.986;2024-01-25T00:33:05;14.53;;;9.80;;
10309;SDS011;5200;43.236;27.986;2024-01-25T00:35:33;14.23;;;9.43;;
10309;SDS011;5200;43.236;27.986;2024-01-25T00:38:01;13.90;;;9.20;;
10309;SDS011;5200;43.236;27.986;2024-01-25T00:40:28;13.67;;;9.87;;
10309;SDS011;5200;43.236;27.986;2024-01-25T00:42:56;15.40;;;9.97;;
10309;SDS011;5200;43.236;27.986;2024-01-25T00:45:23;12.83;;;9.03;;
10309;SDS011;5200;43.236;27.986;2024-01-25T00:47:50;14.33;;;9.00;;
10309;SDS011;5200;43.236;27.986;2024-01-25T00:50:18;14.37;;;9.00;;
10309;SDS011;5200;43.236;27.986;2024-01-25T00:52:50;12.63;;;8.47;;
10309;SDS011;5200;43.236;27.986;2024-01-25T00:55:18;11.50;;;8.77;;
10309;SDS011;5200;43.236;27.986;2024-01-25T00:57:45;12.33;;;8.40;;
10309;SDS011;5200;43.236;27.986;2024-01-25T01:00:13;10.70;;;7.70;;
10309;SDS011;5200;43.236;27.986;2024-01-25T01:02:42;11.50;;;7.77;;
10309;SDS011;5200;43.236;27.986;2024-01-25T01:05:10;13.10;;;8.50;;
10309;SDS011;5200;43.236;27.986;2024-01-25T01:07:38;13.13;;;8.73;;
10309;SDS011;5200;43.236;27.986;2024-01-25T01:10:08;16.40;;;9.07;;
10309;SDS011;5200;43.236;27.986;2024-01-25T01:12:35;12.03;;;9.20;;
10309;SDS011;5200;43.236;27.986;2024-01-25T01:15:02;15.17;;;9.47;;
10309;SDS011;5200;43.236;27.986;2024-01-25T01:17:30;12.33;;;8.87;;
10309;SDS011;5200;43.236;27.986;2024-01-25T01:19:57;12.30;;;9.10;;
10309;SDS011;5200;43.236;27.986;2024-01-25T01:22:24;11.20;;;9.07;;
10309;SDS011;5200;43.236;27.986;2024-01-25T01:24:50;13.17;;;8.77;;
10309;SDS011;5200;43.236;27.986;2024-01-25T01:27:19;13.77;;;9.83;;
10309;SDS011;5200;43.236;27.986;2024-01-25T01:29:46;10.37;;;8.43;;
10309;SDS011;5200;43.236;27.986;2024-01-25T01:32:13;12.63;;;7.93;;
10309;SDS011;5200;43.236;27.986;2024-01-25T01:34:40;12.53;;;7.93;;
10309;SDS011;5200;43.236;27.986;2024-01-25T01:37:07;12.57;;;8.03;;
10309;SDS011;5200;43.236;27.986;2024-01-25T01:39:34;10.30;;;6.83;;
10309;SDS011;5200;43.236;27.986;2024-01-25T01:42:00;10.40;;;7.53;;
10309;SDS011;5200;43.236;27.986;2024-01-25T01:44:29;10.97;;;7.73;;
10309;SDS011;5200;43.236;27.986;2024-01-25T01:46:56;10.17;;;6.93;;
10309;SDS011;5200;43.236;27.986;2024-01-25T01:49:23;10.20;;;7.63;;
10309;SDS011;5200;43.236;27.986;2024-01-25T01:51:50;9.13;;;7.13;;
10309;SDS011;5200;43.236;27.986;2024-01-25T01:54:17;7.60;;;6.73;;
10309;SDS011;5200;43.236;27.986;2024-01-25T01:56:44;8.60;;;6.70;;
10309;SDS011;5200;43.236;27.986;2024-01-25T01:59:11;9.07;;;6.57;;
10309;SDS011;5200;43.236;27.986;2024-01-25T02:01:39;10.03;;;7.40;;
10309;SDS011;5200;43.236;27.986;2024-01-25T02:04:06;9.20;;;6.50;;
10309;SDS011;5200;43.236;27.986;2024-01-25T02:06:33;9.23;;;7.17;;
10309;SDS011;5200;43.236;27.986;2024-01-25T02:09:00;7.07;;;5.83;;
10309;SDS011;5200;43.236;27.986;2024-01-25T02:11:27;8.80;;;6.07;;
10309;SDS011;5200;43.236;27.986;2024-01-25T02:13:55;7.90;;;5.73;;
10309;SDS011;5200;43.236;27.986;2024-01-25T02:16:22;7.40;;;5.37;;
10309;SDS011;5200;43.236;27.986;2024-01-25T02:18:50;7.47;;;5.77;;
10309;SDS011;5200;43.236;27.986;2024-01-25T02:21:19;8.40;;;6.47;;
10309;SDS011;5200;43.236;27.986;2024-01-25T02:23:47;9.50;;;6.30;;
10309;SDS011;5200;43.236;27.986;2024-01-25T02:26:14;6.40;;;5.23;;
10309;SDS011;5200;43.236;27.986;2024-01-25T02:28:41;5.83;;;4.73;;
10309;SDS011;5200;43.236;27.986;2024-01-25T02:31:08;7.83;;;5.00;;
10309;SDS011;5200;43.236;27.986;2024-01-25T02:33:35;7.80;;;6.47;;
10309;SDS011;5200;43.236;27.986;2024-01-25T02:36:02;9.37;;;7.73;;
10309;SDS011;5200;43.236;27.986;2024-01-25T02:38:29;10.57;;;8.10;;
10309;SDS011;5200;43.236;27.986;2024-01-25T02:40:57;11.37;;;9.03;;
10309;SDS011;5200;43.236;27.986;2024-01-25T02:43:24;11.40;;;8.60;;
10309;SDS011;5200;43.236;27.986;2024-01-25T02:45:52;10.80;;;8.17;;
10309;SDS011;5200;43.236;27.986;2024-01-25T02:48:19;12.70;;;9.30;;
10309;SDS011;5200;43.236;27.986;2024-01-25T02:50:46;14.33;;;9.57;;
10309;SDS011;5200;43.236;27.986;2024-01-25T02:53:12;10.83;;;7.50;;
10309;SDS011;5200;43.236;27.986;2024-01-25T02:55:39;8.73;;;6.47;;
10309;SDS011;5200;43.236;27.986;2024-01-25T02:58:07;8.70;;;6.83;;
10309;SDS011;5200;43.236;27.986;2024-01-25T03:00:34;11.03;;;6.50;;
10309;SDS011;5200;43.236;27.986;2024-01-25T03:03:01;11.40;;;7.33;;
10309;SDS011;5200;43.236;27.986;2024-01-25T03:05:28;13.90;;;9.00;;
10309;SDS011;5200;43.236;27.986;2024-01-25T03:07:55;10.73;;;8.40;;
10309;SDS011;5200;43.236;27.986;2024-01-25T03:10:23;12.17;;;9.23;;
10309;SDS011;5200;43.236;27.986;2024-01-25T03:12:49;11.57;;;8.60;;
10309;SDS011;5200;43.236;27.986;2024-01-25T03:15:17;11.27;;;7.87;;
10309;SDS011;5200;43.236;27.986;2024-01-25T03:17:43;12.13;;;7.60;;
10309;SDS011;5200;43.236;27.986;2024-01-25T03:20:10;9.40;;;6.38;;
10309;SDS011;5200;43.236;27.986;2024-01-25T03:22:37;9.53;;;6.47;;
10309;SDS011;5200;43.236;27.986;2024-01-25T03:25:04;8.93;;;6.20;;
10309;SDS011;5200;43.236;27.986;2024-01-25T03:27:31;6.80;;;5.20;;
10309;SDS011;5200;43.236;27.986;2024-01-25T03:29:58;7.23;;;5.30;;
10309;SDS011;5200;43.236;27.986;2024-01-25T03:32:27;7.00;;;4.73;;
10309;SDS011;5200;43.236;27.986;2024-01-25T03:34:53;6.70;;;4.37;;
10309;SDS011;5200;43.236;27.986;2024-01-25T03:37:20;7.23;;;4.40;;
10309;SDS011;5200;43.236;27.986;2024-01-25T03:39:47;5.20;;;4.00;;
10309;SDS011;5200;43.236;27.986;2024-01-25T03:42:14;4.07;;;3.40;;
10309;SDS011;5200;43.236;27.986;2024-01-25T03:44:41;8.13;;;6.57;;
10309;SDS011;5200;43.236;27.986;2024-01-25T03:47:09;4.03;;;3.40;;
10309;SDS011;5200;43.236;27.986;2024-01-25T03:49:38;4.47;;;3.60;;
10309;SDS011;5200;43.236;27.986;2024-01-25T03:52:05;4.93;;;3.50;;
10309;SDS011;5200;43.236;27.986;2024-01-25T03:54:32;5.80;;;3.55;;
10309;SDS011;5200;43.236;27.986;2024-01-25T03:56:59;4.50;;;3.40;;
10309;SDS011;5200;43.236;27.986;2024-01-25T03:59:25;4.47;;;3.30;;
10309;SDS011;5200;43.236;27.986;2024-01-25T04:01:52;5.43;;;3.45;;
10309;SDS011;5200;43.236;27.986;2024-01-25T04:04:19;13.10;;;8.57;;
10309;SDS011;5200;43.236;27.986;2024-01-25T04:06:47;7.37;;;5.57;;
10309;SDS011;5200;43.236;27.986;2024-01-25T04:09:14;10.23;;;6.00;;
10309;SDS011;5200;43.236;27.986;2024-01-25T04:11:41;4.97;;;3.50;;
10309;SDS011;5200;43.236;27.986;2024-01-25T04:14:08;4.30;;;3.40;;
10309;SDS011;5200;43.236;27.986;2024-01-25T04:16:35;5.20;;;3.55;;
10309;SDS011;5200;43.236;27.986;2024-01-25T04:19:02;5.20;;;4.20;;
10309;SDS011;5200;43.236;27.986;2024-01-25T04:21:29;4.50;;;3.80;;
10309;SDS011;5200;43.236;27.986;2024-01-25T04:23:57;5.22;;;3.78;;
10309;SDS011;5200;43.236;27.986;2024-01-25T04:26:24;3.75;;;2.92;;
10309;SDS011;5200;43.236;27.986;2024-01-25T04:28:51;5.30;;;3.27;;
10309;SDS011;5200;43.236;27.986;2024-01-25T04:31:18;4.15;;;3.08;;
10309;SDS011;5200;43.236;27.986;2024-01-25T04:33:45;5.13;;;3.40;;
10309;SDS011;5200;43.236;27.986;2024-01-25T04:36:12;4.83;;;3.20;;
10309;SDS011;5200;43.236;27.986;2024-01-25T04:38:38;4.28;;;3.28;;
10309;SDS011;5200;43.236;27.986;2024-01-25T04:41:07;5.57;;;3.78;;
10309;SDS011;5200;43.236;27.986;2024-01-25T04:43:34;5.23;;;3.80;;
10309;SDS011;5200;43.236;27.986;2024-01-25T04:46:01;3.90;;;3.15;;
10309;SDS011;5200;43.236;27.986;2024-01-25T04:48:29;5.72;;;3.60;;
10309;SDS011;5200;43.236;27.986;2024-01-25T04:50:56;5.63;;;3.63;;
10309;SDS011;5200;43.236;27.986;2024-01-25T04:53:24;4.47;;;3.30;;
10309;SDS011;5200;43.236;27.986;2024-01-25T04:55:50;5.28;;;3.60;;
10309;SDS011;5200;43.236;27.986;2024-01-25T04:58:19;7.33;;;3.70;;
10309;SDS011;5200;43.236;27.986;2024-01-25T05:00:46;5.30;;;4.30;;
10309;SDS011;5200;43.236;27.986;2024-01-25T05:03:12;6.32;;;4.35;;
10309;SDS011;5200;43.236;27.986;2024-01-25T05:05:39;6.30;;;4.40;;
10309;SDS011;5200;43.236;27.986;2024-01-25T05:08:06;5.75;;;4.00;;
10309;SDS011;5200;43.236;27.986;2024-01-25T05:10:33;5.70;;;3.97;;
10309;SDS011;5200;43.236;27.986;2024-01-25T05:13:00;5.80;;;4.13;;
10309;SDS011;5200;43.236;27.986;2024-01-25T05:15:28;6.17;;;4.07;;
10309;SDS011;5200;43.236;27.986;2024-01-25T05:17:55;6.32;;;4.47;;
10309;SDS011;5200;43.236;27.986;2024-01-25T05:20:22;5.78;;;3.85;;
10309;SDS011;5200;43.236;27.986;2024-01-25T05:22:53;8.67;;;4.90;;
10309;SDS011;5200;43.236;27.986;2024-01-25T05:25:20;6.37;;;4.43;;
10309;SDS011;5200;43.236;27.986;2024-01-25T05:27:47;6.97;;;4.43;;
10309;SDS011;5200;43.236;27.986;2024-01-25T05:30:14;7.13;;;4.17;;
10309;SDS011;5200;43.236;27.986;2024-01-25T05:32:42;8.13;;;4.40;;
10309;SDS011;5200;43.236;27.986;2024-01-25T05:35:09;6.33;;;4.50;;
10309;SDS011;5200;43.236;27.986;2024-01-25T05:37:36;7.37;;;3.90;;
10309;SDS011;5200;43.236;27.986;2024-01-25T05:40:03;8.03;;;4.43;;
10309;SDS011;5200;43.236;27.986;2024-01-25T05:42:30;7.63;;;4.57;;
10309;SDS011;5200;43.236;27.986;2024-01-25T05:44:58;6.50;;;4.80;;
10309;SDS011;5200;43.236;27.986;2024-01-25T05:47:24;9.33;;;5.10;;
10309;SDS011;5200;43.236;27.986;2024-01-25T05:49:53;8.93;;;5.03;;
10309;SDS011;5200;43.236;27.986;2024-01-25T05:52:20;7.63;;;5.27;;
10309;SDS011;5200;43.236;27.986;2024-01-25T05:54:47;6.57;;;4.57;;
10309;SDS011;5200;43.236;27.986;2024-01-25T05:57:14;7.47;;;4.70;;
10309;SDS011;5200;43.236;27.986;2024-01-25T05:59:41;7.78;;;5.75;;
10309;SDS011;5200;43.236;27.986;2024-01-25T06:02:07;7.57;;;5.30;;
10309;SDS011;5200;43.236;27.986;2024-01-25T06:04:34;7.20;;;4.67;;
10309;SDS011;5200;43.236;27.986;2024-01-25T06:07:03;6.07;;;5.00;;
10309;SDS011;5200;43.236;27.986;2024-01-25T06:09:30;8.10;;;5.10;;
10309;SDS011;5200;43.236;27.986;2024-01-25T06:11:57;5.37;;;4.13;;
10309;SDS011;5200;43.236;27.986;2024-01-25T06:14:24;10.27;;;5.23;;
10309;SDS011;5200;43.236;27.986;2024-01-25T06:16:51;9.33;;;5.20;;
10309;SDS011;5200;43.236;27.986;2024-01-25T06:19:18;8.70;;;5.90;;
10309;SDS011;5200;43.236;27.986;2024-01-25T06:21:45;8.40;;;5.20;;
10309;SDS011;5200;43.236;27.986;2024-01-25T06:24:13;9.53;;;5.47;;
10309;SDS011;5200;43.236;27.986;2024-01-25T06:26:40;8.07;;;5.20;;
10309;SDS011;5200;43.236;27.986;2024-01-25T06:29:07;7.33;;;5.63;;
10309;SDS011;5200;43.236;27.986;2024-01-25T06:31:39;7.93;;;6.10;;
10309;SDS011;5200;43.236;27.986;2024-01-25T06:34:09;7.05;;;5.57;;
10309;SDS011;5200;43.236;27.986;2024-01-25T06:36:35;6.87;;;5.23;;
10309;SDS011;5200;43.236;27.986;2024-01-25T06:39:02;9.40;;;5.50;;
10309;SDS011;5200;43.236;27.986;2024-01-25T06:41:32;7.70;;;5.13;;
10309;SDS011;5200;43.236;27.986;2024-01-25T06:43:59;8.10;;;5.97;;
10309;SDS011;5200;43.236;27.986;2024-01-25T06:46:26;8.23;;;5.47;;
10309;SDS011;5200;43.236;27.986;2024-01-25T06:48:53;9.45;;;6.35;;
10309;SDS011;5200;43.236;27.986;2024-01-25T06:51:20;8.57;;;6.53;;
10309;SDS011;5200;43.236;27.986;2024-01-25T06:53:47;10.87;;;6.73;;
10309;SDS011;5200;43.236;27.986;2024-01-25T06:56:13;9.03;;;6.57;;
10309;SDS011;5200;43.236;27.986;2024-01-25T06:58:42;12.87;;;6.50;;
10309;SDS011;5200;43.236;27.986;2024-01-25T07:01:08;10.13;;;6.40;;
10309;SDS011;5200;43.236;27.986;2024-01-25T07:03:35;14.97;;;7.90;;
10309;SDS011;5200;43.236;27.986;2024-01-25T07:06:03;10.23;;;6.30;;
10309;SDS011;5200;43.236;27.986;2024-01-25T07:08:30;15.18;;;11.63;;
10309;SDS011;5200;43.236;27.986;2024-01-25T07:10:57;10.77;;;7.80;;
10309;SDS011;5200;43.236;27.986;2024-01-25T07:13:26;9.45;;;7.03;;
10309;SDS011;5200;43.236;27.986;2024-01-25T07:15:54;9.63;;;6.85;;
10309;SDS011;5200;43.236;27.986;2024-01-25T07:18:21;10.03;;;7.27;;
10309;SDS011;5200;43.236;27.986;2024-01-25T07:20:49;11.75;;;7.97;;
10309;SDS011;5200;43.236;27.986;2024-01-25T07:23:16;12.35;;;7.63;;
10309;SDS011;5200;43.236;27.986;2024-01-25T07:25:43;17.10;;;8.55;;
10309;SDS011;5200;43.236;27.986;2024-01-25T07:28:10;10.48;;;7.05;;
10309;SDS011;5200;43.236;27.986;2024-01-25T07:30:37;10.73;;;7.18;;
10309;SDS011;5200;43.236;27.986;2024-01-25T07:33:05;9.85;;;6.60;;
10309;SDS011;5200;43.236;27.986;2024-01-25T07:35:33;10.40;;;7.30;;
10309;SDS011;5200;43.236;27.986;2024-01-25T07:38:00;9.90;;;6.70;;
10309;SDS011;5200;43.236;27.986;2024-01-25T07:40:27;11.20;;;7.18;;
10309;SDS011;5200;43.236;27.986;2024-01-25T07:42:54;8.38;;;6.90;;
10309;SDS011;5200;43.236;27.986;2024-01-25T07:45:21;9.15;;;6.93;;
10309;SDS011;5200;43.236;27.986;2024-01-25T07:47:47;13.45;;;8.20;;
10309;SDS011;5200;43.236;27.986;2024-01-25T07:50:16;10.57;;;7.50;;
10309;SDS011;5200;43.236;27.986;2024-01-25T07:52:43;10.25;;;7.00;;
10309;SDS011;5200;43.236;27.986;2024-01-25T07:55:10;9.23;;;6.30;;
10309;SDS011;5200;43.236;27.986;2024-01-25T07:57:37;9.57;;;6.60;;
10309;SDS011;5200;43.236;27.986;2024-01-25T08:00:04;7.78;;;6.07;;
10309;SDS011;5200;43.236;27.986;2024-01-25T08:02:33;11.80;;;6.90;;
10309;SDS011;5200;43.236;27.986;2024-01-25T08:05:00;8.05;;;6.10;;
10309;SDS011;5200;43.236;27.986;2024-01-25T08:07:28;8.63;;;5.63;;
10309;SDS011;5200;43.236;27.986;2024-01-25T08:09:55;9.05;;;5.82;;
10309;SDS011;5200;43.236;27.986;2024-01-25T08:12:23;7.88;;;5.95;;
10309;SDS011;5200;43.236;27.986;2024-01-25T08:14:50;8.65;;;5.43;;
10309;SDS011;5200;43.236;27.986;2024-01-25T08:17:17;7.20;;;4.93;;
10309;SDS011;5200;43.236;27.986;2024-01-25T08:19:44;6.85;;;4.82;;
10309;SDS011;5200;43.236;27.986;2024-01-25T08:22:11;5.90;;;5.07;;
10309;SDS011;5200;43.236;27.986;2024-01-25T08:24:40;7.30;;;5.28;;
10309;SDS011;5200;43.236;27.986;2024-01-25T08:27:07;6.13;;;4.63;;
10309;SDS011;5200;43.236;27.986;2024-01-25T08:29:34;7.03;;;4.90;;
10309;SDS011;5200;43.236;27.986;2024-01-25T08:32:02;12.25;;;5.38;;
10309;SDS011;5200;43.236;27.986;2024-01-25T08:34:29;6.90;;;5.32;;
10309;SDS011;5200;43.236;27.986;2024-01-25T08:36:56;7.50;;;5.07;;
10309;SDS011;5200;43.236;27.986;2024-01-25T08:39:23;5.75;;;4.63;;
10309;SDS011;5200;43.236;27.986;2024-01-25T08:41:52;6.80;;;4.90;;
10309;SDS011;5200;43.236;27.986;2024-01-25T08:44:19;7.40;;;5.25;;
10309;SDS011;5200;43.236;27.986;2024-01-25T08:46:45;7.00;;;4.82;;
10309;SDS011;5200;43.236;27.986;2024-01-25T08:49:12;5.43;;;4.72;;
10309;SDS011;5200;43.236;27.986;2024-01-25T08:51:39;6.85;;;5.07;;
10309;SDS011;5200;43.236;27.986;2024-01-25T08:54:06;6.85;;;5.30;;
10309;SDS011;5200;43.236;27.986;2024-01-25T08:56:34;7.85;;;5.38;;
10309;SDS011;5200;43.236;27.986;2024-01-25T08:59:02;6.85;;;5.40;;
10309;SDS011;5200;43.236;27.986;2024-01-25T09:01:29;9.25;;;5.53;;
10309;SDS011;5200;43.236;27.986;2024-01-25T09:03:56;5.97;;;5.15;;
10309;SDS011;5200;43.236;27.986;2024-01-25T09:06:27;6.70;;;5.63;;
10309;SDS011;5200;43.236;27.986;2024-01-25T09:08:54;8.07;;;5.90;;
10309;SDS011;5200;43.236;27.986;2024-01-25T09:11:21;6.88;;;5.80;;
10309;SDS011;5200;43.236;27.986;2024-01-25T09:13:48;8.40;;;6.28;;
10309;SDS011;5200;43.236;27.986;2024-01-25T09:16:16;8.02;;;6.30;;
10309;SDS011;5200;43.236;27.986;2024-01-25T09:18:43;7.85;;;5.88;;
10309;SDS011;5200;43.236;27.986;2024-01-25T09:21:10;8.32;;;4.88;;
10309;SDS011;5200;43.236;27.986;2024-01-25T09:23:37;6.18;;;4.55;;
10309;SDS011;5200;43.236;27.986;2024-01-25T09:26:04;6.80;;;5.10;;
10309;SDS011;5200;43.236;27.986;2024-01-25T09:28:30;7.35;;;5.20;;
10309;SDS011;5200;43.236;27.986;2024-01-25T09:30:57;10.88;;;7.82;;
10309;SDS011;5200;43.236;27.986;2024-01-25T09:33:26;10.40;;;5.38;;
10309;SDS011;5200;43.236;27.986;2024-01-25T09:35:52;8.00;;;5.85;;
10309;SDS011;5200;43.236;27.986;2024-01-25T09:38:19;13.13;;;8.10;;
10309;SDS011;5200;43.236;27.986;2024-01-25T09:40:46;8.27;;;5.93;;
10309;SDS011;5200;43.236;27.986;2024-01-25T09:43:14;6.18;;;5.28;;
10309;SDS011;5200;43.236;27.986;2024-01-25T09:45:40;5.82;;;4.68;;
10309;SDS011;5200;43.236;27.986;2024-01-25T09:48:08;7.15;;;4.68;;
10309;SDS011;5200;43.236;27.986;2024-01-25T09:50:37;6.78;;;4.63;;
10309;SDS011;5200;43.236;27.986;2024-01-25T09:53:04;6.65;;;4.63;;
10309;SDS011;5200;43.236;27.986;2024-01-25T09:55:33;6.90;;;5.97;;
10309;SDS011;5200;43.236;27.986;2024-01-25T09:58:06;7.75;;;5.15;;
10309;SDS011;5200;43.236;27.986;2024-01-25T10:00:33;7.35;;;5.45;;
10309;SDS011;5200;43.236;27.986;2024-01-25T10:03:00;10.02;;;6.47;;
10309;SDS011;5200;43.236;27.986;2024-01-25T10:05:28;8.32;;;6.05;;
10309;SDS011;5200;43.236;27.986;2024-01-25T10:07:56;9.05;;;6.70;;
10309;SDS011;5200;43.236;27.986;2024-01-25T10:10:26;7.72;;;5.70;;
10309;SDS011;5200;43.236;27.986;2024-01-25T10:12:55;11.60;;;7.30;;
10309;SDS011;5200;43.236;27.986;2024-01-25T10:15:23;10.25;;;6.25;;
10309;SDS011;5200;43.236;27.986;2024-01-25T10:17:50;9.73;;;6.07;;
10309;SDS011;5200;43.236;27.986;2024-01-25T10:20:17;18.88;;;5.50;;
10309;SDS011;5200;43.236;27.986;2024-01-25T10:22:46;11.00;;;5.65;;
10309;SDS011;5200;43.236;27.986;2024-01-25T10:25:14;6.22;;;5.10;;
10309;SDS011;5200;43.236;27.986;2024-01-25T10:27:41;8.07;;;5.55;;
10309;SDS011;5200;43.236;27.986;2024-01-25T10:30:08;6.43;;;4.70;;
10309;SDS011;5200;43.236;27.986;2024-01-25T10:32:36;8.23;;;4.88;;
10309;SDS011;5200;43.236;27.986;2024-01-25T10:35:04;6.13;;;4.60;;
10309;SDS011;5200;43.236;27.986;2024-01-25T10:37:32;6.00;;;4.45;;
10309;SDS011;5200;43.236;27.986;2024-01-25T10:39:59;8.90;;;8.00;;
10309;SDS011;5200;43.236;27.986;2024-01-25T10:42:29;6.65;;;4.38;;
10309;SDS011;5200;43.236;27.986;2024-01-25T10:44:56;4.75;;;4.30;;
10309;SDS011;5200;43.236;27.986;2024-01-25T10:47:23;8.07;;;5.03;;
10309;SDS011;5200;43.236;27.986;2024-01-25T10:49:52;6.53;;;4.80;;
10309;SDS011;5200;43.236;27.986;2024-01-25T10:52:20;6.95;;;4.53;;
10309;SDS011;5200;43.236;27.986;2024-01-25T10:54:47;11.95;;;5.57;;
10309;SDS011;5200;43.236;27.986;2024-01-25T10:57:14;7.38;;;5.03;;
10309;SDS011;5200;43.236;27.986;2024-01-25T10:59:43;6.60;;;5.05;;
10309;SDS011;5200;43.236;27.986;2024-01-25T11:02:10;6.47;;;4.78;;
10309;SDS011;5200;43.236;27.986;2024-01-25T11:04:37;10.43;;;5.47;;
10309;SDS011;5200;43.236;27.986;2024-01-25T11:07:04;5.57;;;4.68;;
10309;SDS011;5200;43.236;27.986;2024-01-25T11:09:33;10.15;;;5.13;;
10309;SDS011;5200;43.236;27.986;2024-01-25T11:12:10;6.50;;;5.10;;
10309;SDS011;5200;43.236;27.986;2024-01-25T11:14:39;9.40;;;5.68;;
10309;SDS011;5200;43.236;27.986;2024-01-25T11:17:16;8.43;;;5.10;;
10309;SDS011;5200;43.236;27.986;2024-01-25T11:19:45;8.63;;;4.60;;
10309;SDS011;5200;43.236;27.986;2024-01-25T11:22:14;13.32;;;9.35;;
10309;SDS011;5200;43.236;27.986;2024-01-25T11:24:41;6.85;;;4.85;;
10309;SDS011;5200;43.236;27.986;2024-01-25T11:27:08;5.68;;;4.70;;
10309;SDS011;5200;43.236;27.986;2024-01-25T11:29:37;5.75;;;4.35;;
10309;SDS011;5200;43.236;27.986;2024-01-25T11:32:05;7.45;;;5.10;;
10309;SDS011;5200;43.236;27.986;2024-01-25T11:34:33;7.63;;;4.43;;
10309;SDS011;5200;43.236;27.986;2024-01-25T11:37:01;6.63;;;4.53;;
10309;SDS011;5200;43.236;27.986;2024-01-25T11:39:28;13.32;;;4.80;;
10309;SDS011;5200;43.236;27.986;2024-01-25T11:41:55;6.95;;;4.47;;
10309;SDS011;5200;43.236;27.986;2024-01-25T11:44:21;8.73;;;5.43;;
10309;SDS011;5200;43.236;27.986;2024-01-25T11:46:49;6.95;;;4.75;;
10309;SDS011;5200;43.236;27.986;2024-01-25T11:49:16;8.15;;;4.63;;
10309;SDS011;5200;43.236;27.986;2024-01-25T11:51:45;10.43;;;4.88;;
10309;SDS011;5200;43.236;27.986;2024-01-25T11:54:12;6.22;;;4.18;;
10309;SDS011;5200;43.236;27.986;2024-01-25T11:56:39;7.03;;;4.38;;
10309;SDS011;5200;43.236;27.986;2024-01-25T11:59:07;12.57;;;4.15;;
10309;SDS011;5200;43.236;27.986;2024-01-25T12:01:35;5.57;;;4.30;;
10309;SDS011;5200;43.236;27.986;2024-01-25T12:04:02;7.10;;;3.85;;
10309;SDS011;5200;43.236;27.986;2024-01-25T12:06:31;5.60;;;4.18;;
10309;SDS011;5200;43.236;27.986;2024-01-25T12:09:07;5.53;;;4.30;;
10309;SDS011;5200;43.236;27.986;2024-01-25T12:11:34;8.48;;;4.53;;
10309;SDS011;5200;43.236;27.986;2024-01-25T12:14:01;6.60;;;4.18;;
10309;SDS011;5200;43.236;27.986;2024-01-25T12:16:28;7.35;;;3.97;;
10309;SDS011;5200;43.236;27.986;2024-01-25T12:18:55;7.18;;;3.97;;
10309;SDS011;5200;43.236;27.986;2024-01-25T12:21:22;8.68;;;4.63;;
10309;SDS011;5200;43.236;27.986;2024-01-25T12:23:50;6.93;;;4.15;;
10309;SDS011;5200;43.236;27.986;2024-01-25T12:26:18;5.55;;;4.38;;
10309;SDS011;5200;43.236;27.986;2024-01-25T12:28:46;9.38;;;4.47;;
10309;SDS011;5200;43.236;27.986;2024-01-25T12:31:14;6.43;;;4.50;;
10309;SDS011;5200;43.236;27.986;2024-01-25T12:33:42;5.90;;;4.00;;
10309;SDS011;5200;43.236;27.986;2024-01-25T12:36:09;6.32;;;4.40;;
10309;SDS011;5200;43.236;27.986;2024-01-25T12:38:36;5.25;;;4.32;;
10309;SDS011;5200;43.236;27.986;2024-01-25T12:41:04;7.20;;;4.57;;
10309;SDS011;5200;43.236;27.986;2024-01-25T12:43:32;8.38;;;5.47;;
10309;SDS011;5200;43.236;27.986;2024-01-25T12:45:59;6.07;;;4.82;;
10309;SDS011;5200;43.236;27.986;2024-01-25T12:48:26;13.63;;;4.82;;
10309;SDS011;5200;43.236;27.986;2024-01-25T12:50:53;11.02;;;5.10;;
10309;SDS011;5200;43.236;27.986;2024-01-25T12:53:20;7.45;;;5.47;;
10309;SDS011;5200;43.236;27.986;2024-01-25T12:55:46;10.43;;;5.30;;
10309;SDS011;5200;43.236;27.986;2024-01-25T12:58:13;7.18;;;4.47;;
10309;SDS011;5200;43.236;27.986;2024-01-25T13:00:42;9.35;;;5.55;;
10309;SDS011;5200;43.236;27.986;2024-01-25T13:03:10;8.70;;;4.75;;
10309;SDS011;5200;43.236;27.986;2024-01-25T13:05:37;7.80;;;4.60;;
10309;SDS011;5200;43.236;27.986;2024-01-25T13:08:05;11.65;;;4.65;;
10309;SDS011;5200;43.236;27.986;2024-01-25T13:10:32;8.50;;;4.82;;
10309;SDS011;5200;43.236;27.986;2024-01-25T13:12:59;6.82;;;4.40;;
10309;SDS011;5200;43.236;27.986;2024-01-25T13:15:26;6.10;;;4.18;;
10309;SDS011;5200;43.236;27.986;2024-01-25T13:17:54;11.60;;;4.85;;
10309;SDS011;5200;43.236;27.986;2024-01-25T13:20:22;11.32;;;6.82;;
10309;SDS011;5200;43.236;27.986;2024-01-25T13:22:49;8.50;;;4.95;;
10309;SDS011;5200;43.236;27.986;2024-01-25T13:25:16;9.18;;;4.53;;
10309;SDS011;5200;43.236;27.986;2024-01-25T13:27:42;4.97;;;4.15;;
10309;SDS011;5200;43.236;27.986;2024-01-25T13:30:09;8.77;;;4.85;;
10309;SDS011;5200;43.236;27.986;2024-01-25T13:32:38;7.68;;;4.35;;
10309;SDS011;5200;43.236;27.986;2024-01-25T13:35:07;9.63;;;4.90;;
10309;SDS011;5200;43.236;27.986;2024-01-25T13:37:34;6.68;;;4.55;;
10309;SDS011;5200;43.236;27.986;2024-01-25T13:40:01;12.60;;;6.68;;
10309;SDS011;5200;43.236;27.986;2024-01-25T13:42:29;9.77;;;5.18;;
10309;SDS011;5200;43.236;27.986;2024-01-25T13:44:56;9.77;;;5.10;;
10309;SDS011;5200;43.236;27.986;2024-01-25T13:47:23;7.15;;;4.60;;
10309;SDS011;5200;43.236;27.986;2024-01-25T13:49:50;10.70;;;4.47;;
10309;SDS011;5200;43.236;27.986;2024-01-25T13:52:18;7.90;;;4.43;;
10309;SDS011;5200;43.236;27.986;2024-01-25T13:54:46;9.73;;;4.57;;
10309;SDS011;5200;43.236;27.986;2024-01-25T13:57:14;7.18;;;4.32;;
10309;SDS011;5200;43.236;27.986;2024-01-25T13:59:41;9.48;;;4.90;;
10309;SDS011;5200;43.236;27.986;2024-01-25T14:02:08;7.93;;;5.57;;
10309;SDS011;5200;43.236;27.986;2024-01-25T14:04:35;7.90;;;4.00;;
10309;SDS011;5200;43.236;27.986;2024-01-25T14:07:02;5.90;;;3.88;;
10309;SDS011;5200;43.236;27.986;2024-01-25T14:09:30;8.10;;;3.72;;
10309;SDS011;5200;43.236;27.986;2024-01-25T14:11:57;7.70;;;3.90;;
10309;SDS011;5200;43.236;27.986;2024-01-25T14:14:24;9.07;;;4.10;;
10309;SDS011;5200;43.236;27.986;2024-01-25T14:16:51;11.30;;;4.45;;
10309;SDS011;5200;43.236;27.986;2024-01-25T14:19:17;8.98;;;4.57;;
10309;SDS011;5200;43.236;27.986;2024-01-25T14:21:45;8.45;;;4.95;;
10309;SDS011;5200;43.236;27.986;2024-01-25T14:24:14;11.02;;;4.32;;
10309;SDS011;5200;43.236;27.986;2024-01-25T14:26:42;8.25;;;3.75;;
10309;SDS011;5200;43.236;27.986;2024-01-25T14:29:10;9.10;;;3.85;;
10309;SDS011;5200;43.236;27.986;2024-01-25T14:31:38;7.45;;;4.18;;
10309;SDS011;5200;43.236;27.986;2024-01-25T14:34:06;11.07;;;4.05;;
10309;SDS011;5200;43.236;27.986;2024-01-25T14:36:33;9.32;;;3.97;;
10309;SDS011;5200;43.236;27.986;2024-01-25T14:39:00;7.57;;;4.30;;
10309;SDS011;5200;43.236;27.986;2024-01-25T14:41:27;9.50;;;4.60;;
10309;SDS011;5200;43.236;27.986;2024-01-25T14:43:56;6.47;;;3.85;;